Time;durP1;ratioP1;P1;durP2;ratioP2;P2;SDS_P1;SDS_P2;PMS_P1;PMS_P2;Temp;Humidity;BMP_temperature;BMP_pressure;BME280_temperature;BME280_humidity;BME280_pressure;Samples;Min_cycle;Max_cycle;Signal;HPM_P1;HPM_P2
2021/04/06 00:02:16;;;;;;;2.47;1.67;;;;;;;3.74;61.21;95225.19;5046170;28;20233;-83
2021/04/06 00:04:46;;;;;;;2.43;1.50;;;;;;;3.71;61.63;95220.38;5045738;28;20221;-81
2021/04/06 00:07:15;;;;;;;2.23;1.40;;;;;;;3.67;60.54;95219.06;5051068;28;20228;-82
2021/04/06 00:09:43;;;;;;;1.60;1.37;;;;;;;3.71;61.32;95216.09;5052453;28;20222;-83
2021/04/06 00:12:11;;;;;;;2.47;1.57;;;;;;;3.79;60.63;95211.09;5037997;28;20696;-82
2021/04/06 00:14:38;;;;;;;3.07;1.53;;;;;;;3.83;59.84;95209.06;5032419;28;20222;-82
2021/04/06 00:17:08;;;;;;;3.03;1.57;;;;;;;3.75;60.15;95202.13;5046368;28;20225;-82
2021/04/06 00:19:38;;;;;;;2.33;1.60;;;;;;;3.77;60.17;95199.44;5052677;28;20234;-83
2021/04/06 00:22:05;;;;;;;4.60;1.60;;;;;;;3.82;59.35;95197.28;5035793;28;20226;-83
2021/04/06 00:24:33;;;;;;;1.70;1.33;;;;;;;3.83;58.64;95195.53;5035485;28;20194;-82
2021/04/06 00:27:09;;;;;;;5.13;1.63;;;;;;;3.79;59.53;95200.91;5052854;28;20548;-83
2021/04/06 00:29:37;;;;;;;1.70;1.33;;;;;;;3.75;59.69;95196.25;5048711;28;20532;-82
2021/04/06 00:32:07;;;;;;;3.40;1.50;;;;;;;3.73;59.63;95188.75;5032933;28;20236;-84
2021/04/06 00:34:36;;;;;;;2.50;1.50;;;;;;;3.81;59.74;95196.47;5037816;28;20326;-83
2021/04/06 00:37:04;;;;;;;1.73;1.50;;;;;;;3.85;59.30;95196.97;5052312;28;20233;-84
2021/04/06 00:39:32;;;;;;;2.30;1.40;;;;;;;3.92;59.68;95192.09;5041744;28;20237;-82
2021/04/06 00:42:03;;;;;;;3.60;1.50;;;;;;;3.97;58.64;95189.94;5032929;28;20678;-84
2021/04/06 00:44:32;;;;;;;1.70;1.60;;;;;;;4.00;58.96;95184.56;5045945;28;20248;-83
2021/04/06 00:46:58;;;;;;;3.77;1.60;;;;;;;4.02;58.06;95185.22;5054190;28;20258;-82
2021/04/06 00:49:25;;;;;;;2.37;1.80;;;;;;;3.88;57.36;95176.31;5038924;28;20233;-84
2021/04/06 00:51:53;;;;;;;2.60;1.60;;;;;;;3.69;59.02;95171.34;5034465;28;20233;-82
2021/04/06 00:54:19;;;;;;;1.73;1.23;;;;;;;3.77;57.16;95179.09;5048525;28;20202;-80
2021/04/06 00:56:46;;;;;;;2.87;1.67;;;;;;;3.88;57.55;95178.06;5033647;28;20233;-80
2021/04/06 00:59:13;;;;;;;4.53;1.47;;;;;;;3.87;57.59;95177.25;5053019;28;20283;-83
2021/04/06 01:01:41;;;;;;;2.27;1.30;;;;;;;3.84;57.08;95177.56;5051872;28;20221;-82
2021/04/06 01:04:09;;;;;;;3.23;1.90;;;;;;;3.80;57.33;95168.63;5033545;28;20226;-83
2021/04/06 01:06:58;;;;;;;2.97;1.57;;;;;;;3.84;57.07;95171.69;5041494;28;20204;-84
2021/04/06 01:09:40;;;;;;;1.80;1.60;;;;;;;3.80;56.77;95169.41;5046073;28;20780;-84
2021/04/06 01:12:08;;;;;;;3.23;1.50;;;;;;;3.77;57.37;95169.69;5034552;28;20224;-84
2021/04/06 01:14:36;;;;;;;3.77;1.70;;;;;;;3.84;57.01;95175.03;5041305;28;20225;-82
2021/04/06 01:17:04;;;;;;;5.53;1.83;;;;;;;3.81;56.79;95175.31;5038484;28;20653;-83
2021/04/06 01:19:31;;;;;;;2.83;1.60;;;;;;;3.85;57.00;95184.22;5039413;28;20225;-81
2021/04/06 01:22:00;;;;;;;2.37;2.17;;;;;;;3.91;56.62;95181.13;5053565;28;20231;-82
2021/04/06 01:24:27;;;;;;;2.67;1.70;;;;;;;3.94;55.71;95183.38;5053164;28;20202;-83
2021/04/06 01:26:53;;;;;;;2.90;1.50;;;;;;;3.93;55.74;95176.69;5053996;28;20210;-83
2021/04/06 01:29:19;;;;;;;2.00;1.60;;;;;;;3.95;55.93;95179.09;5052129;28;20217;-82
2021/04/06 01:31:46;;;;;;;3.40;1.70;;;;;;;4.00;55.10;95182.81;5052791;28;20240;-82
2021/04/06 01:34:12;;;;;;;3.97;1.70;;;;;;;4.04;55.39;95173.13;5037895;28;20756;-83
2021/04/06 01:36:38;;;;;;;2.30;1.67;;;;;;;4.08;55.36;95179.50;5043730;28;20221;-80
2021/04/06 01:39:05;;;;;;;4.37;1.83;;;;;;;4.04;55.65;95173.13;5053452;28;20295;-83
2021/04/06 01:41:32;;;;;;;4.30;1.57;;;;;;;3.99;56.31;95175.31;5043578;28;20221;-82
2021/04/06 01:43:58;;;;;;;2.07;1.50;;;;;;;3.91;56.21;95177.78;5033278;28;20229;-80
2021/04/06 01:46:31;;;;;;;3.17;1.60;;;;;;;3.81;57.06;95176.13;5040096;28;20235;-80
2021/04/06 01:48:59;;;;;;;3.33;1.90;;;;;;;3.80;56.65;95169.41;5051990;28;20237;-82
2021/04/06 01:51:25;;;;;;;3.10;1.70;;;;;;;3.66;57.00;95172.44;5046368;28;20194;-82
2021/04/06 01:53:51;;;;;;;2.70;1.67;;;;;;;3.58;57.76;95169.84;5034779;28;20221;-83
2021/04/06 01:56:24;;;;;;;2.00;1.70;;;;;;;3.62;57.47;95170.34;5038632;28;20222;-83
2021/04/06 01:58:55;;;;;;;2.40;1.80;;;;;;;3.66;57.64;95169.09;5031573;28;20234;-82
2021/04/06 02:01:22;;;;;;;2.50;1.50;;;;;;;3.55;57.30;95154.03;5033123;28;20286;-80
2021/04/06 02:03:52;;;;;;;2.07;1.67;;;;;;;3.55;57.85;95146.41;5052356;28;20255;-82
2021/04/06 02:06:24;;;;;;;2.67;1.93;;;;;;;3.56;57.75;95159.00;5039852;28;20281;-82
2021/04/06 02:08:51;;;;;;;3.67;1.60;;;;;;;3.51;57.56;95158.63;5035179;28;20316;-83
2021/04/06 02:11:19;;;;;;;3.30;1.60;;;;;;;3.42;57.62;95152.66;5043148;28;20228;-81
2021/04/06 02:13:45;;;;;;;2.50;1.63;;;;;;;3.43;57.81;95150.91;5050607;28;20225;-81
2021/04/06 02:16:12;;;;;;;4.13;1.97;;;;;;;3.46;58.17;95155.72;5052245;28;20235;-79
2021/04/06 02:18:38;;;;;;;2.23;1.90;;;;;;;3.51;57.75;95157.81;5035033;28;20221;-83
2021/04/06 02:21:05;;;;;;;3.07;1.70;;;;;;;3.51;58.13;95153.53;5032623;28;20229;-81
2021/04/06 02:23:40;;;;;;;2.73;1.70;;;;;;;3.50;58.19;95156.22;5047384;28;20255;-81
2021/04/06 02:26:06;;;;;;;3.43;2.10;;;;;;;3.39;58.16;95152.13;5034948;28;20221;-82
2021/04/06 02:28:33;;;;;;;4.07;1.90;;;;;;;3.42;57.67;95159.50;5046686;28;20256;-82
2021/04/06 02:31:01;;;;;;;2.03;1.80;;;;;;;3.42;57.89;95155.19;5051541;28;20225;-82
2021/04/06 02:33:30;;;;;;;2.43;2.10;;;;;;;3.42;57.87;95152.66;5037788;28;20199;-80
2021/04/06 02:35:58;;;;;;;3.53;2.00;;;;;;;3.43;57.91;95150.91;5031963;28;20218;-82
2021/04/06 02:38:24;;;;;;;4.33;2.43;;;;;;;3.39;58.14;95141.97;5043653;28;20241;-81
2021/04/06 02:41:08;;;;;;;3.63;2.10;;;;;;;3.25;58.42;95138.16;5051764;28;20230;-84
2021/04/06 02:43:49;;;;;;;2.63;1.87;;;;;;;3.19;58.95;95143.81;5038367;28;20229;-79
2021/04/06 02:46:19;;;;;;;2.20;1.93;;;;;;;3.24;58.53;95134.03;5034103;28;20216;-82
2021/04/06 02:48:46;;;;;;;4.17;2.00;;;;;;;3.16;58.45;95135.66;5050485;28;20244;-81
2021/04/06 02:51:13;;;;;;;4.37;1.90;;;;;;;3.07;59.09;95138.13;5035886;28;20697;-82
2021/04/06 02:53:39;;;;;;;3.77;1.90;;;;;;;2.93;59.08;95143.66;5051865;28;20227;-83
2021/04/06 02:56:07;;;;;;;5.53;2.17;;;;;;;2.88;59.62;95137.41;5034768;28;20635;-80
2021/04/06 02:58:38;;;;;;;1.83;1.70;;;;;;;2.95;59.48;95144.31;5034750;28;20233;-79
2021/04/06 03:01:15;;;;;;;4.60;1.93;;;;;;;3.02;59.42;95136.94;5035834;28;20230;-81
2021/04/06 03:03:42;;;;;;;3.83;1.80;;;;;;;3.05;58.63;95137.47;5035790;28;20228;-82
2021/04/06 03:06:10;;;;;;;2.00;1.80;;;;;;;2.95;58.95;95136.69;5035796;28;20283;-81
2021/04/06 03:08:38;;;;;;;3.50;2.00;;;;;;;2.88;59.11;95134.88;5053529;28;20250;-79
2021/04/06 03:11:05;;;;;;;2.33;1.97;;;;;;;2.82;59.18;95132.88;5053940;28;20233;-80
2021/04/06 03:13:31;;;;;;;4.00;2.20;;;;;;;2.80;59.65;95144.94;5037996;28;20224;-83
2021/04/06 03:15:58;;;;;;;3.20;2.07;;;;;;;2.81;59.45;95146.53;5043503;28;20238;-80
2021/04/06 03:18:32;;;;;;;3.13;2.17;;;;;;;2.80;60.41;95150.00;5034047;28;20206;-82
2021/04/06 03:21:00;;;;;;;3.20;2.27;;;;;;;2.74;60.37;95139.47;5043258;28;20259;-81
2021/04/06 03:23:27;;;;;;;2.33;2.10;;;;;;;2.67;60.50;95140.97;5053870;28;20282;-80
2021/04/06 03:25:55;;;;;;;2.33;1.70;;;;;;;2.77;60.19;95140.91;5045063;28;20245;-80
2021/04/06 03:28:29;;;;;;;2.10;2.00;;;;;;;2.87;60.03;95144.25;5044352;28;20236;-80
2021/04/06 03:31:04;;;;;;;2.40;1.83;;;;;;;2.82;59.96;95143.06;5033697;28;20241;-82
2021/04/06 03:33:30;;;;;;;2.63;1.90;;;;;;;2.87;59.52;95149.31;5034425;28;20202;-81
2021/04/06 03:35:56;;;;;;;2.67;1.90;;;;;;;2.81;60.12;95142.25;5034079;28;20222;-79
2021/04/06 03:38:24;;;;;;;2.00;1.90;;;;;;;2.72;59.50;95136.25;5047625;28;20732;-81
2021/04/06 03:40:51;;;;;;;3.13;2.43;;;;;;;2.69;60.29;95141.59;5050986;28;20233;-80
2021/04/06 03:43:19;;;;;;;2.60;2.13;;;;;;;2.72;59.54;95132.91;5038019;28;20234;-82
2021/04/06 03:45:56;;;;;;;2.50;1.90;;;;;;;2.68;59.57;95131.59;5051358;28;20193;-82
2021/04/06 03:48:23;;;;;;;2.77;1.93;;;;;;;2.45;59.76;95122.72;5044588;28;20661;-82
2021/04/06 03:50:50;;;;;;;2.27;1.73;;;;;;;2.26;60.32;95129.44;5052678;28;20777;-83
2021/04/06 03:53:16;;;;;;;1.80;1.70;;;;;;;2.18;60.64;95128.50;5040510;28;20226;-83
2021/04/06 03:55:43;;;;;;;3.37;1.63;;;;;;;2.02;61.03;95132.41;5033505;28;20250;-80
2021/04/06 03:58:15;;;;;;;3.03;2.17;;;;;;;2.12;60.90;95127.31;5043678;28;20229;-81
2021/04/06 04:00:42;;;;;;;2.60;1.70;;;;;;;2.23;60.76;95132.25;5037713;28;20197;-80
2021/04/06 04:03:08;;;;;;;1.90;1.60;;;;;;;2.33;60.16;95133.03;5034821;28;20201;-80
2021/04/06 04:05:34;;;;;;;3.30;1.77;;;;;;;2.44;60.07;95134.63;5032236;28;20603;-82
2021/04/06 04:08:01;;;;;;;2.40;1.60;;;;;;;2.39;60.05;95129.13;5042841;28;20224;-82
2021/04/06 04:10:28;;;;;;;2.60;1.80;;;;;;;2.37;59.78;95121.66;5048922;28;20225;-80
2021/04/06 04:12:54;;;;;;;1.90;1.50;;;;;;;2.22;60.11;95124.78;5051392;28;20221;-81
2021/04/06 04:15:21;;;;;;;2.47;2.17;;;;;;;2.05;60.88;95127.06;5037894;28;20208;-81
2021/04/06 04:17:49;;;;;;;2.33;1.80;;;;;;;2.02;60.65;95126.53;5040647;28;20308;-81
2021/04/06 04:20:17;;;;;;;3.47;1.93;;;;;;;2.13;60.67;95120.50;5032304;28;20236;-82
2021/04/06 04:22:42;;;;;;;12.70;8.43;;;;;;;2.20;60.28;95116.47;5052110;28;20229;-81
2021/04/06 04:25:11;;;;;;;3.03;2.00;;;;;;;2.12;60.43;95117.16;5052748;28;20217;-81
2021/04/06 04:27:37;;;;;;;2.87;1.73;;;;;;;2.10;60.45;95116.50;5041918;28;20277;-81
2021/04/06 04:30:04;;;;;;;2.50;1.73;;;;;;;2.03;60.56;95113.72;5032787;28;20732;-84
2021/04/06 04:32:31;;;;;;;1.67;1.57;;;;;;;2.01;60.84;95124.94;5048555;28;20221;-82
2021/04/06 04:34:57;;;;;;;2.83;1.80;;;;;;;1.97;60.77;95111.69;5038247;28;20603;-81
2021/04/06 04:37:23;;;;;;;4.33;1.77;;;;;;;2.17;64.30;95117.56;5034619;28;20225;-81
2021/04/06 04:39:49;;;;;;;4.07;2.00;;;;;;;2.59;67.22;95117.19;5049120;28;20236;-78
2021/04/06 04:42:15;;;;;;;3.47;1.50;;;;;;;2.79;60.56;95118.72;5048960;28;20259;-78
2021/04/06 04:44:41;;;;;;;2.30;2.03;;;;;;;3.02;62.26;95109.78;5047799;28;20282;-79
2021/04/06 04:47:07;;;;;;;3.47;2.00;;;;;;;3.02;58.90;95111.50;5049421;28;20438;-78
2021/04/06 04:49:34;;;;;;;2.77;1.57;;;;;;;2.85;58.15;95108.00;5050518;28;20701;-80
2021/04/06 04:52:00;;;;;;;1.80;1.70;;;;;;;2.69;58.49;95098.41;5049042;28;20229;-76
2021/04/06 04:54:27;;;;;;;4.13;1.87;;;;;;;2.39;59.22;95096.91;5049665;28;20198;-80
2021/04/06 04:56:53;;;;;;;8.90;6.70;;;;;;;2.48;59.03;95113.09;5051130;28;20675;-81
2021/04/06 04:59:19;;;;;;;5.37;2.87;;;;;;;2.45;59.14;95120.16;5050377;28;20237;-80
2021/04/06 05:01:45;;;;;;;1.80;1.70;;;;;;;2.53;58.96;95115.97;5049822;28;20278;-82
2021/04/06 05:04:11;;;;;;;2.53;1.93;;;;;;;2.49;58.99;95124.84;5050467;28;20225;-80
2021/04/06 05:06:38;;;;;;;2.10;1.73;;;;;;;2.41;59.72;95115.38;5050565;28;20197;-80
2021/04/06 05:09:05;;;;;;;2.63;1.67;;;;;;;2.36;59.59;95124.34;5050365;28;20579;-80
2021/04/06 05:11:31;;;;;;;3.23;2.00;;;;;;;2.25;59.76;95125.31;5049681;28;20225;-79
2021/04/06 05:13:57;;;;;;;2.17;1.97;;;;;;;2.14;59.63;95125.44;5050527;28;20239;-78
2021/04/06 05:16:23;;;;;;;2.20;2.00;;;;;;;2.27;59.34;95120.88;5050308;28;20225;-80
2021/04/06 05:18:49;;;;;;;4.23;2.00;;;;;;;2.21;59.74;95125.69;5049359;28;20716;-80
2021/04/06 05:21:15;;;;;;;2.70;1.90;;;;;;;2.14;59.53;95115.28;5050145;28;20206;-81
2021/04/06 05:23:42;;;;;;;2.63;1.93;;;;;;;2.03;59.63;95113.72;5050396;28;20798;-80
2021/04/06 05:26:08;;;;;;;2.37;1.80;;;;;;;2.02;59.83;95127.34;5050778;28;20229;-82
2021/04/06 05:28:34;;;;;;;3.10;1.93;;;;;;;2.12;59.51;95131.63;5049462;28;20228;-83
2021/04/06 05:31:00;;;;;;;2.70;1.70;;;;;;;2.07;59.77;95124.41;5050292;28;20752;-78
2021/04/06 05:33:26;;;;;;;2.20;1.60;;;;;;;2.15;59.87;95121.97;5051406;28;20232;-83
2021/04/06 05:35:53;;;;;;;2.50;2.00;;;;;;;2.23;59.97;95123.84;5051148;28;20233;-82
2021/04/06 05:38:19;;;;;;;2.73;1.90;;;;;;;2.18;59.87;95123.44;5049495;28;20251;-80
2021/04/06 05:40:46;;;;;;;3.07;1.90;;;;;;;2.26;59.90;95126.09;5050011;28;20249;-80
2021/04/06 05:43:14;;;;;;;2.77;1.53;;;;;;;2.32;59.54;95123.78;5049683;28;20732;-82
2021/04/06 05:45:44;;;;;;;4.07;2.20;;;;;;;2.48;59.43;95127.53;5049471;28;20202;-81
2021/04/06 05:48:14;;;;;;;3.33;1.80;;;;;;;2.45;59.92;95120.97;5049811;28;20201;-81
2021/04/06 05:50:44;;;;;;;1.90;1.70;;;;;;;2.40;59.66;95129.00;5049741;28;20749;-83
2021/04/06 05:53:10;;;;;;;4.53;2.10;;;;;;;2.52;59.34;95137.25;5051109;28;20225;-83
2021/04/06 05:55:37;;;;;;;3.70;2.00;;;;;;;2.52;58.83;95129.63;5049783;28;20747;-83
2021/04/06 05:58:03;;;;;;;3.03;2.37;;;;;;;2.55;59.29;95129.34;5050005;28;20746;-83
2021/04/06 06:00:29;;;;;;;2.80;1.63;;;;;;;2.63;58.58;95126.94;5048424;28;20719;-81
2021/04/06 06:02:55;;;;;;;3.27;2.07;;;;;;;2.57;59.13;95131.75;5049799;28;20209;-79
2021/04/06 06:05:22;;;;;;;2.53;1.80;;;;;;;2.67;58.68;95137.63;5049192;28;20232;-80
2021/04/06 06:07:48;;;;;;;2.00;1.80;;;;;;;2.55;60.25;95133.63;5049259;28;20576;-80
2021/04/06 06:10:28;;;;;;;3.57;2.30;;;;;;;2.78;59.79;95137.44;5049901;28;20456;-82
2021/04/06 06:12:54;;;;;;;3.53;2.20;;;;;;;2.81;59.92;95144.78;5049452;28;20236;-81
2021/04/06 06:15:21;;;;;;;5.90;2.37;;;;;;;2.76;58.35;95132.50;5050261;28;20205;-81
2021/04/06 06:18:08;;;;;;;3.27;2.40;;;;;;;2.70;58.41;95127.16;5049729;28;20241;-82
2021/04/06 06:20:35;;;;;;;3.70;2.20;;;;;;;2.49;58.00;95129.94;5043373;28;20243;-81
2021/04/06 06:23:17;;;;;;;3.50;2.10;;;;;;;2.55;58.61;95126.81;5048938;28;20232;-83
2021/04/06 06:26:10;;;;;;;3.30;2.50;;;;;;;2.45;59.21;95128.59;5047354;28;20295;-81
2021/04/06 06:28:37;;;;;;;2.20;2.00;;;;;;;2.46;58.98;95135.28;5044572;28;20217;-82
2021/04/06 06:31:04;;;;;;;4.07;1.90;;;;;;;2.57;58.94;95130.03;5052053;28;20217;-79
2021/04/06 06:33:33;;;;;;;4.03;2.37;;;;;;;2.48;58.60;95128.31;5052953;28;20201;-79
2021/04/06 06:36:00;;;;;;;2.67;2.00;;;;;;;2.38;58.85;95130.88;5054081;28;20282;-80
2021/04/06 06:38:34;;;;;;;2.73;2.03;;;;;;;2.37;58.12;95131.00;5052680;28;20279;-79
2021/04/06 06:41:11;;;;;;;4.27;2.37;;;;;;;2.40;58.54;95128.19;5053577;28;20225;-82
2021/04/06 06:43:38;;;;;;;2.37;2.17;;;;;;;2.52;58.58;95118.66;5053119;28;20941;-81
2021/04/06 06:46:15;;;;;;;3.07;2.40;;;;;;;2.59;57.35;95117.97;5053226;28;20224;-79
2021/04/06 06:48:41;;;;;;;2.20;1.90;;;;;;;2.85;57.41;95120.69;5053732;28;20814;-80
2021/04/06 06:51:10;;;;;;;3.70;2.10;;;;;;;2.96;56.90;95125.59;5053886;28;20197;-80
2021/04/06 06:53:39;;;;;;;3.50;2.17;;;;;;;3.16;56.68;95117.84;5052899;28;20232;-80
2021/04/06 06:56:08;;;;;;;3.87;2.20;;;;;;;3.20;56.72;95109.81;5053301;28;20238;-82
2021/04/06 06:58:35;;;;;;;4.27;2.10;;;;;;;3.33;55.75;95112.78;5053391;28;20232;-79
2021/04/06 07:01:04;;;;;;;4.87;2.03;;;;;;;3.58;55.56;95108.75;5053501;28;20232;-80
2021/04/06 07:03:30;;;;;;;2.47;2.00;;;;;;;3.61;54.17;95117.84;5053175;28;20201;-82
2021/04/06 07:05:57;;;;;;;3.03;2.27;;;;;;;3.42;53.55;95118.78;5053847;28;20229;-82
2021/04/06 07:08:30;;;;;;;3.23;2.00;;;;;;;3.39;53.02;95101.25;5053040;28;20233;-81
2021/04/06 07:10:56;;;;;;;3.23;1.87;;;;;;;3.68;53.06;95106.13;5053830;28;20229;-82
2021/04/06 07:13:28;;;;;;;3.30;2.00;;;;;;;3.91;52.59;95092.00;5053763;28;20235;-82
2021/04/06 07:15:55;;;;;;;3.93;2.20;;;;;;;4.07;51.47;95091.31;5053592;28;20233;-80
2021/04/06 07:18:24;;;;;;;3.27;2.37;;;;;;;4.31;52.09;95090.66;5054199;28;20268;-81
2021/04/06 07:20:52;;;;;;;2.60;1.97;;;;;;;4.09;51.36;95089.41;5053546;28;20355;-82
2021/04/06 07:23:30;;;;;;;3.57;1.67;;;;;;;3.86;50.97;95089.06;5053913;28;20232;-81
2021/04/06 07:25:56;;;;;;;3.63;1.63;;;;;;;3.82;51.44;95108.16;5053864;28;20232;-81
2021/04/06 07:28:23;;;;;;;4.93;2.10;;;;;;;3.59;52.94;95109.56;5053815;28;20221;-81
2021/04/06 07:30:50;;;;;;;1.67;1.57;;;;;;;3.54;52.20;95114.25;5053628;28;20227;-81
2021/04/06 07:33:17;;;;;;;2.17;1.60;;;;;;;3.36;51.87;95121.88;5053926;28;20265;-82
2021/04/06 07:35:44;;;;;;;3.53;2.03;;;;;;;3.37;52.15;95116.66;5053031;28;20225;-81
2021/04/06 07:38:10;;;;;;;3.00;1.73;;;;;;;3.24;52.07;95118.75;5052611;28;20232;-81
2021/04/06 07:40:38;;;;;;;2.10;1.60;;;;;;;3.21;51.69;95116.50;5052253;28;20413;-81
2021/04/06 07:43:05;;;;;;;3.63;1.90;;;;;;;3.13;52.33;95124.81;5053513;28;20610;-79
2021/04/06 07:45:45;;;;;;;2.17;1.70;;;;;;;3.19;52.94;95128.56;5053417;28;20198;-80
2021/04/06 07:48:13;;;;;;;2.57;1.90;;;;;;;3.37;53.25;95124.28;5053640;28;20197;-80
2021/04/06 07:50:42;;;;;;;6.07;1.90;;;;;;;3.48;54.30;95131.69;5052269;28;20584;-81
2021/04/06 07:53:26;;;;;;;3.33;1.87;;;;;;;3.40;53.84;95123.22;5052720;28;20226;-81
2021/04/06 07:55:54;;;;;;;2.30;1.90;;;;;;;3.03;54.17;95118.19;5052724;28;20260;-80
2021/04/06 07:58:46;;;;;;;3.57;2.00;;;;;;;3.00;54.24;95118.47;5052372;28;20251;-80
2021/04/06 08:01:16;;;;;;;4.13;2.00;;;;;;;3.02;54.25;95114.06;5052471;28;20225;-79
2021/04/06 08:04:06;;;;;;;3.43;2.20;;;;;;;3.15;53.92;95128.97;5051224;28;20903;-81
2021/04/06 08:06:47;;;;;;;1.83;1.73;;;;;;;3.25;55.15;95125.44;5051697;28;20265;-80
2021/04/06 08:09:47;;;;;;;2.70;1.80;;;;;;;3.45;54.59;95126.94;5052760;28;20279;-80
2021/04/06 08:12:15;;;;;;;3.03;1.87;;;;;;;3.55;55.33;95126.84;5052757;28;20211;-81
2021/04/06 08:14:55;;;;;;;4.30;2.20;;;;;;;3.51;54.24;95129.81;5052588;28;20229;-80
2021/04/06 08:17:44;;;;;;;3.43;2.40;;;;;;;3.32;54.75;95133.28;5051801;28;20731;-80
2021/04/06 08:20:26;;;;;;;3.20;2.07;;;;;;;3.37;54.63;95131.91;5051968;28;20237;-79
2021/04/06 08:22:54;;;;;;;5.40;2.40;;;;;;;3.38;54.31;95138.63;5051999;28;20229;-79
2021/04/06 08:25:45;;;;;;;5.40;2.37;;;;;;;3.17;54.68;95143.16;5052651;28;20770;-78
2021/04/06 08:28:31;;;;;;;5.30;2.20;;;;;;;3.11;54.88;95152.13;5052117;28;20631;-81
2021/04/06 08:31:34;;;;;;;3.83;2.00;;;;;;;3.13;55.06;95139.28;5052240;28;20606;-79
2021/04/06 08:34:39;;;;;;;3.70;2.13;;;;;;;3.13;54.90;95155.34;5052229;28;20279;-79
2021/04/06 08:37:13;;;;;;;4.10;2.27;;;;;;;3.29;54.81;95146.28;5052066;28;20233;-79
2021/04/06 08:39:39;;;;;;;4.07;2.40;;;;;;;3.29;54.85;95143.75;5052048;28;20214;-80
2021/04/06 08:42:07;;;;;;;4.70;2.20;;;;;;;3.35;54.07;95149.06;5052510;28;20201;-80
2021/04/06 08:44:36;;;;;;;3.07;2.10;;;;;;;3.43;53.90;95146.63;5052035;28;20241;-80
2021/04/06 08:47:03;;;;;;;4.70;2.10;;;;;;;3.51;54.25;95140.00;5051998;28;20221;-81
2021/04/06 08:49:29;;;;;;;3.33;2.10;;;;;;;3.64;54.55;95146.34;5051891;28;20383;-80
2021/04/06 08:51:57;;;;;;;5.33;2.00;;;;;;;3.77;52.87;95136.59;5052040;28;20220;-79
2021/04/06 08:54:25;;;;;;;3.90;2.10;;;;;;;3.73;53.33;95137.84;5051675;28;20258;-78
2021/04/06 08:56:53;;;;;;;2.93;1.97;;;;;;;3.74;53.81;95128.44;5051778;28;20842;-80
2021/04/06 08:59:24;;;;;;;5.03;2.43;;;;;;;3.99;53.56;95137.09;5051457;28;20716;-80
2021/04/06 09:01:55;;;;;;;3.43;2.03;;;;;;;4.03;52.49;95134.13;5051322;28;20244;-80
2021/04/06 09:04:23;;;;;;;5.70;2.17;;;;;;;4.02;52.34;95129.97;5051523;28;20221;-79
2021/04/06 09:06:49;;;;;;;3.33;2.00;;;;;;;4.24;52.77;95122.78;5052225;28;20237;-78
2021/04/06 09:09:19;;;;;;;3.60;2.17;;;;;;;4.32;52.63;95122.84;5052002;28;20271;-80
2021/04/06 09:11:48;;;;;;;3.63;1.97;;;;;;;4.57;52.39;95123.81;5051975;28;20672;-81
2021/04/06 09:14:15;;;;;;;5.47;2.30;;;;;;;4.36;51.79;95119.84;5051315;28;20225;-80
2021/04/06 09:16:42;;;;;;;4.17;2.40;;;;;;;4.29;51.85;95120.59;5051561;28;20291;-78
2021/04/06 09:19:10;;;;;;;3.63;2.27;;;;;;;4.14;51.76;95126.22;5051396;28;20225;-79
2021/04/06 09:21:38;;;;;;;3.27;2.20;;;;;;;4.08;52.27;95119.19;5051747;28;20205;-78
2021/04/06 09:24:06;;;;;;;4.50;2.30;;;;;;;4.04;52.28;95119.63;5051903;28;20237;-79
2021/04/06 09:26:32;;;;;;;3.97;2.33;;;;;;;4.02;52.62;95131.72;5051586;28;20225;-80
2021/04/06 09:29:01;;;;;;;3.33;2.00;;;;;;;4.24;53.32;95125.31;5051704;28;20263;-79
2021/04/06 09:31:27;;;;;;;4.27;2.00;;;;;;;4.20;53.02;95126.59;5051336;28;20283;-77
2021/04/06 09:34:03;;;;;;;3.50;2.17;;;;;;;4.05;52.71;95119.47;5051775;28;20229;-79
2021/04/06 09:36:29;;;;;;;4.73;1.93;;;;;;;4.02;52.22;95119.78;5051178;28;20225;-81
2021/04/06 09:38:55;;;;;;;5.83;1.93;;;;;;;4.01;52.21;95130.13;5051161;28;20597;-79
2021/04/06 09:41:28;;;;;;;5.07;2.00;;;;;;;3.79;52.96;95126.28;5051176;28;20225;-79
2021/04/06 09:43:54;;;;;;;4.93;2.60;;;;;;;3.89;53.63;95121.09;5050307;28;20236;-80
2021/04/06 09:46:20;;;;;;;6.40;2.10;;;;;;;4.14;52.67;95115.25;5050754;28;20241;-78
2021/04/06 09:48:53;;;;;;;5.30;2.30;;;;;;;4.18;52.27;95110.66;5050575;28;20275;-78
2021/04/06 09:51:20;;;;;;;7.10;2.50;;;;;;;4.38;52.49;95101.88;5051637;28;20288;-80
2021/04/06 09:53:47;;;;;;;3.53;2.10;;;;;;;4.36;52.23;95109.66;5050603;28;20221;-80
2021/04/06 09:56:13;;;;;;;3.80;2.10;;;;;;;4.35;52.18;95102.97;5051029;28;20225;-79
2021/04/06 09:58:39;;;;;;;2.93;2.17;;;;;;;4.24;52.24;95098.09;5050957;28;20237;-80
2021/04/06 10:01:16;;;;;;;2.37;1.97;;;;;;;4.31;51.85;95086.38;5050786;28;20716;-80
2021/04/06 10:03:44;;;;;;;4.20;2.20;;;;;;;4.45;52.23;95096.00;5051035;28;20284;-81
2021/04/06 10:06:12;;;;;;;2.60;1.93;;;;;;;4.57;51.83;95090.66;5055718;28;20781;-77
2021/04/06 10:08:40;;;;;;;3.73;1.80;;;;;;;4.83;52.80;95096.50;5054576;28;20248;-81
2021/04/06 10:11:06;;;;;;;2.80;2.07;;;;;;;4.99;51.07;95099.16;5054401;28;20229;-81
2021/04/06 10:13:35;;;;;;;3.47;2.13;;;;;;;5.16;50.85;95093.13;5054718;28;20231;-81
2021/04/06 10:16:10;;;;;;;3.77;2.03;;;;;;;5.21;50.77;95085.78;5055146;28;20229;-79
2021/04/06 10:18:43;;;;;;;2.93;2.07;;;;;;;5.25;51.97;95086.28;5054822;28;20757;-81
2021/04/06 10:21:17;;;;;;;4.80;2.00;;;;;;;5.19;51.75;95087.72;5055521;28;20288;-81
2021/04/06 10:23:44;;;;;;;4.87;2.20;;;;;;;5.35;51.26;95086.16;5054700;28;20569;-80
2021/04/06 10:26:23;;;;;;;4.70;2.20;;;;;;;5.28;51.36;95080.06;5054526;28;20226;-79
2021/04/06 10:29:02;;;;;;;2.10;1.77;;;;;;;5.20;50.56;95084.19;5054683;28;20316;-80
2021/04/06 10:31:43;;;;;;;4.67;2.20;;;;;;;5.05;50.12;95074.75;5054312;28;20225;-81
2021/04/06 10:34:09;;;;;;;2.57;1.87;;;;;;;4.86;50.94;95071.50;5054290;28;20252;-80
2021/04/06 10:36:35;;;;;;;2.63;1.93;;;;;;;4.79;50.37;95080.72;5054737;28;20371;-81
2021/04/06 10:39:05;;;;;;;2.27;1.80;;;;;;;4.74;50.36;95071.94;5055119;28;20221;-81
2021/04/06 10:41:34;;;;;;;4.77;1.97;;;;;;;4.76;51.38;95077.69;5054229;28;20229;-79
2021/04/06 10:44:01;;;;;;;3.00;2.00;;;;;;;4.93;56.02;95063.25;5054152;28;20236;-80
2021/04/06 10:46:27;;;;;;;2.87;2.03;;;;;;;5.03;53.18;95064.69;5053886;28;20275;-77
2021/04/06 10:49:01;;;;;;;2.83;1.90;;;;;;;5.34;54.79;95059.84;5053935;28;20232;-78
2021/04/06 10:51:28;;;;;;;3.33;2.10;;;;;;;5.60;52.98;95057.13;5053553;28;20201;-79
2021/04/06 10:53:56;;;;;;;6.63;2.20;;;;;;;5.74;54.76;95055.72;5053653;28;20235;-80
2021/04/06 10:56:25;;;;;;;4.77;2.00;;;;;;;5.85;53.34;95050.28;5053973;28;20237;-79
2021/04/06 10:58:53;;;;;;;3.23;2.40;;;;;;;5.60;50.87;95049.47;5054012;28;20260;-78
2021/04/06 11:01:22;;;;;;;3.33;2.17;;;;;;;5.62;51.45;95044.22;5052877;28;20225;-79
2021/04/06 11:03:50;;;;;;;3.40;1.87;;;;;;;5.36;49.59;95045.16;5053849;28;20264;-80
2021/04/06 11:06:26;;;;;;;3.90;2.17;;;;;;;5.18;50.37;95042.75;5053410;28;20654;-80
2021/04/06 11:08:54;;;;;;;3.17;2.07;;;;;;;5.10;50.80;95039.38;5053148;28;20240;-80
2021/04/06 11:11:27;;;;;;;3.90;2.00;;;;;;;5.12;50.90;95042.56;5053191;28;20770;-80
2021/04/06 11:13:55;;;;;;;4.63;2.03;;;;;;;5.19;50.94;95035.91;5054074;28;20251;-80
2021/04/06 11:16:22;;;;;;;3.53;2.10;;;;;;;5.01;50.49;95022.44;5052405;28;20225;-80
2021/04/06 11:19:05;;;;;;;4.43;2.07;;;;;;;5.25;51.39;95024.25;5053361;28;20646;-80
2021/04/06 11:21:32;;;;;;;7.07;1.97;;;;;;;5.80;50.13;95015.00;5053917;28;20274;-79
2021/04/06 11:23:58;;;;;;;4.70;2.20;;;;;;;6.30;49.23;95003.78;5053906;28;20201;-79
2021/04/06 11:26:25;;;;;;;2.20;1.90;;;;;;;6.38;48.82;94997.81;5053856;28;20278;-80
2021/04/06 11:28:51;;;;;;;4.53;2.07;;;;;;;6.17;47.96;95001.72;5053243;28;20716;-80
2021/04/06 11:31:17;;;;;;;4.03;2.27;;;;;;;6.06;47.88;94993.59;5052859;28;20221;-78
2021/04/06 11:33:43;;;;;;;3.20;2.10;;;;;;;5.52;48.57;94994.13;5052497;28;20229;-78
2021/04/06 11:36:10;;;;;;;3.33;1.93;;;;;;;5.45;49.89;95000.00;5052960;28;20197;-81
2021/04/06 11:38:36;;;;;;;4.03;2.43;;;;;;;5.52;49.22;94991.56;5052664;28;20716;-79
2021/04/06 11:41:03;;;;;;;4.07;2.10;;;;;;;5.65;49.74;94975.75;5052719;28;20247;-80
2021/04/06 11:43:30;;;;;;;2.77;2.03;;;;;;;5.82;49.69;94984.19;5052921;28;20304;-80
2021/04/06 11:45:56;;;;;;;3.50;1.83;;;;;;;5.87;49.16;94974.28;5052638;28;20221;-79
2021/04/06 11:48:22;;;;;;;2.73;2.20;;;;;;;5.81;48.91;94977.47;5053255;28;20573;-79
2021/04/06 11:50:49;;;;;;;4.93;1.97;;;;;;;5.53;47.74;94975.28;5052336;28;20582;-77
2021/04/06 11:53:15;;;;;;;2.53;1.97;;;;;;;5.46;48.75;94978.63;5052860;28;20294;-80